Flagstaff, AZ (86004)

11:09 AM MST on August 03, 2015 (GMT -0700)
Doney Park | | Change Station
CLOSE
Current Station
Personal Weather Station
Location: Flagstaff, AZ
Elevation: 6555 ft
Nearby Weather Stations

Elev 6555 ft 35.28 °N, 111.50 °W | Updated 8 seconds ago

Partly Cloudy
Partly Cloudy
79.8 °F
Feels Like 79 °F
N
8.0
Wind Variable Wind from WSW
Gusts 15.0 mph

Today
High -- | Low -- °F
--% Chance of Precip.
Yesterday
High -- | Low -- °F
Precip. -- in
5:36 AM 7:27 PM
Waning Gibbous, 85% visible
Pressure 30.00 in
Visibility 10.0 miles
Clouds Mostly Cloudy 7500 ft
Mostly Cloudy 9000 ft
Heat Index 79 °F
Dew Point 48 °F
Humidity 33%
Rainfall 0.00 in
Snow Depth Not available.
UV 11.4 out of 12
Pollen 4.40 out of 12
Air Quality Not available.
Flu Activity Not available.
METAR KFLG 031757Z 26009G17KT 230V290 10SM BKN075 BKN090 24/05 A3030 RMK AO2 SLP158 T02440050 10250 20083 50001

More Conditions Fewer Conditions

Pressure 30.00 in
Visibility 10.0 miles
Clouds Mostly Cloudy 7500 ft
Mostly Cloudy 9000 ft
Heat Index 79 °F
Dew Point 48 °F
Humidity 33%
Rainfall 0.00 in
Snow Depth Not available.
UV 11.4 out of 12
Pollen 4.40 out of 12
Air Quality Not available.
Flu Activity Not available.
METAR KFLG 031757Z 26009G17KT 230V290 10SM BKN075 BKN090 24/05 A3030 RMK AO2 SLP158 T02440050 10250 20083 50001

More Conditions Fewer Conditions

10-Day Weather Forecast

×

Almanac

Astronomy

Aug. 03, 2015 Rise Set
Actual Time
Civil Twilight
Nautical Twilight
Astronomical Twilight
Moon
Length of Visible Light
Length of Day
Tomorrow will be .
, % of the Moon is Illuminated

Today's Extremes

State Highs State Lows

Community

WunderPhotos

Upload Photos

1,843,696 photos uploaded!

WunderBlogs® & News

Nearby

Air Quality

  Air Quality AQ Index Pollutant
Not available.

Snow Depth

Station Depth Elevation

Earthquake Activity

City Distance Mag. Time & Date
Minimum magnitude displayed is 2.5.

Coastal Water Temperatures

Place Temperature

Stations

Nearby Weather Stations

Station Location Temp. Windchill Dew Point Humidity Wind Precip. Elev Updated Type